sensor_id;sensor_type;location;lat;lon;timestamp;pressure;altitude;pressure_sealevel;temperature;humidity
7180;BME280;3631;42.152;24.756;2023-01-27T00:01:06;98651.44;;;2.51;100.00
7180;BME280;3631;42.152;24.756;2023-01-27T00:04:03;98647.28;;;2.41;100.00
7180;BME280;3631;42.152;24.756;2023-01-27T00:06:53;98658.38;;;2.39;100.00
7180;BME280;3631;42.152;24.756;2023-01-27T00:09:55;98664.44;;;2.32;100.00
7180;BME280;3631;42.152;24.756;2023-01-27T00:12:42;98682.28;;;2.38;100.00
7180;BME280;3631;42.152;24.756;2023-01-27T00:15:50;98673.00;;;2.26;100.00
7180;BME280;3631;42.152;24.756;2023-01-27T00:19:03;98683.94;;;2.45;100.00
7180;BME280;3631;42.152;24.756;2023-01-27T00:21:54;98665.09;;;2.52;100.00
7180;BME280;3631;42.152;24.756;2023-01-27T00:24:51;98649.72;;;2.50;100.00
7180;BME280;3631;42.152;24.756;2023-01-27T00:27:50;98636.25;;;2.35;100.00
7180;BME280;3631;42.152;24.756;2023-01-27T00:30:52;98638.56;;;2.58;100.00
7180;BME280;3631;42.152;24.756;2023-01-27T00:33:54;98629.91;;;2.69;100.00
7180;BME280;3631;42.152;24.756;2023-01-27T00:37:05;98624.78;;;2.71;100.00
7180;BME280;3631;42.152;24.756;2023-01-27T00:40:06;98636.75;;;2.69;100.00
7180;BME280;3631;42.152;24.756;2023-01-27T00:43:00;98604.59;;;2.42;100.00
7180;BME280;3631;42.152;24.756;2023-01-27T00:45:37;98642.78;;;2.60;100.00
7180;BME280;3631;42.152;24.756;2023-01-27T00:48:40;98640.31;;;2.55;100.00
7180;BME280;3631;42.152;24.756;2023-01-27T00:51:33;98630.94;;;2.50;100.00
7180;BME280;3631;42.152;24.756;2023-01-27T00:54:36;98643.75;;;2.51;100.00
7180;BME280;3631;42.152;24.756;2023-01-27T00:57:48;98629.25;;;2.49;100.00
7180;BME280;3631;42.152;24.756;2023-01-27T01:00:46;98615.56;;;2.53;100.00
7180;BME280;3631;42.152;24.756;2023-01-27T01:03:47;98590.09;;;2.41;100.00
7180;BME280;3631;42.152;24.756;2023-01-27T01:06:54;98576.38;;;2.46;100.00
7180;BME280;3631;42.152;24.756;2023-01-27T01:10:00;98564.47;;;2.42;100.00
7180;BME280;3631;42.152;24.756;2023-01-27T01:13:05;98566.91;;;2.53;100.00
7180;BME280;3631;42.152;24.756;2023-01-27T01:16:15;98561.75;;;2.54;100.00
7180;BME280;3631;42.152;24.756;2023-01-27T01:18:59;98554.97;;;2.49;100.00
7180;BME280;3631;42.152;24.756;2023-01-27T01:21:51;98591.72;;;2.48;100.00
7180;BME280;3631;42.152;24.756;2023-01-27T01:24:58;98625.69;;;2.62;100.00
7180;BME280;3631;42.152;24.756;2023-01-27T01:27:58;98590.78;;;2.57;100.00
7180;BME280;3631;42.152;24.756;2023-01-27T01:30:52;98620.44;;;2.73;100.00
7180;BME280;3631;42.152;24.756;2023-01-27T01:33:50;98639.09;;;2.85;100.00
7180;BME280;3631;42.152;24.756;2023-01-27T01:36:42;98618.56;;;2.88;100.00
7180;BME280;3631;42.152;24.756;2023-01-27T01:39:46;98611.75;;;2.84;100.00
7180;BME280;3631;42.152;24.756;2023-01-27T01:42:54;98589.66;;;2.77;100.00
7180;BME280;3631;42.152;24.756;2023-01-27T01:45:57;98597.19;;;2.89;100.00
7180;BME280;3631;42.152;24.756;2023-01-27T01:49:02;98598.91;;;2.90;100.00
7180;BME280;3631;42.152;24.756;2023-01-27T01:51:51;98593.03;;;2.81;100.00
7180;BME280;3631;42.152;24.756;2023-01-27T01:54:40;98566.59;;;2.79;100.00
7180;BME280;3631;42.152;24.756;2023-01-27T01:57:45;98570.63;;;2.95;100.00
7180;BME280;3631;42.152;24.756;2023-01-27T02:00:58;98568.84;;;3.02;100.00
7180;BME280;3631;42.152;24.756;2023-01-27T02:04:08;98561.81;;;3.16;100.00
7180;BME280;3631;42.152;24.756;2023-01-27T02:07:07;98567.84;;;3.12;100.00
7180;BME280;3631;42.152;24.756;2023-01-27T02:10:02;98570.47;;;3.07;100.00
7180;BME280;3631;42.152;24.756;2023-01-27T02:13:01;98557.63;;;3.07;100.00
7180;BME280;3631;42.152;24.756;2023-01-27T02:15:52;98553.28;;;3.14;100.00
7180;BME280;3631;42.152;24.756;2023-01-27T02:18:34;98554.13;;;3.14;100.00
7180;BME280;3631;42.152;24.756;2023-01-27T02:21:17;98535.38;;;3.11;100.00
7180;BME280;3631;42.152;24.756;2023-01-27T02:24:12;98537.78;;;3.23;100.00
7180;BME280;3631;42.152;24.756;2023-01-27T02:27:23;98518.94;;;3.24;100.00
7180;BME280;3631;42.152;24.756;2023-01-27T02:30:15;98513.81;;;3.24;100.00
7180;BME280;3631;42.152;24.756;2023-01-27T02:33:07;98504.56;;;3.15;100.00
7180;BME280;3631;42.152;24.756;2023-01-27T02:36:10;98488.53;;;3.03;100.00
7180;BME280;3631;42.152;24.756;2023-01-27T02:39:07;98494.53;;;2.99;100.00
7180;BME280;3631;42.152;24.756;2023-01-27T02:42:09;98527.47;;;3.26;100.00
7180;BME280;3631;42.152;24.756;2023-01-27T02:44:59;98518.00;;;3.29;100.00
7180;BME280;3631;42.152;24.756;2023-01-27T02:47:52;98518.94;;;3.24;100.00
7180;BME280;3631;42.152;24.756;2023-01-27T02:50:38;98519.28;;;3.03;100.00
7180;BME280;3631;42.152;24.756;2023-01-27T02:53:52;98510.72;;;3.04;100.00
7180;BME280;3631;42.152;24.756;2023-01-27T02:56:52;98511.59;;;3.03;100.00
7180;BME280;3631;42.152;24.756;2023-01-27T02:59:58;98512.63;;;2.89;100.00
7180;BME280;3631;42.152;24.756;2023-01-27T03:02:55;98499.88;;;2.85;100.00
7180;BME280;3631;42.152;24.756;2023-01-27T03:05:52;98506.53;;;2.97;100.00
7180;BME280;3631;42.152;24.756;2023-01-27T03:08:59;98498.88;;;2.93;100.00
7180;BME280;3631;42.152;24.756;2023-01-27T03:11:59;98500.66;;;2.91;100.00
7180;BME280;3631;42.152;24.756;2023-01-27T03:15:04;98464.19;;;2.71;100.00
7180;BME280;3631;42.152;24.756;2023-01-27T03:18:12;98471.84;;;2.74;100.00
7180;BME280;3631;42.152;24.756;2023-01-27T03:21:07;98485.28;;;2.90;100.00
7180;BME280;3631;42.152;24.756;2023-01-27T03:24:02;98453.22;;;2.63;100.00
7180;BME280;3631;42.152;24.756;2023-01-27T03:26:50;98512.75;;;2.80;100.00
7180;BME280;3631;42.152;24.756;2023-01-27T03:33:09;98516.97;;;2.83;100.00
7180;BME280;3631;42.152;24.756;2023-01-27T03:36:16;98518.59;;;2.90;100.00
7180;BME280;3631;42.152;24.756;2023-01-27T03:39:01;98507.38;;;2.99;100.00
7180;BME280;3631;42.152;24.756;2023-01-27T03:41:59;98502.91;;;3.10;100.00
7180;BME280;3631;42.152;24.756;2023-01-27T03:44:53;98494.53;;;3.00;100.00
7180;BME280;3631;42.152;24.756;2023-01-27T03:48:13;98503.56;;;3.24;100.00
7180;BME280;3631;42.152;24.756;2023-01-27T03:51:06;98502.63;;;3.28;100.00
7180;BME280;3631;42.152;24.756;2023-01-27T03:54:05;98505.97;;;3.33;100.00
7180;BME280;3631;42.152;24.756;2023-01-27T03:56:59;98504.31;;;3.29;100.00
7180;BME280;3631;42.152;24.756;2023-01-27T03:59:46;98508.94;;;3.07;100.00
7180;BME280;3631;42.152;24.756;2023-01-27T04:02:51;98505.34;;;3.17;100.00
7180;BME280;3631;42.152;24.756;2023-01-27T04:05:46;98510.25;;;3.34;100.00
7180;BME280;3631;42.152;24.756;2023-01-27T04:08:40;98487.13;;;3.37;100.00
7180;BME280;3631;42.152;24.756;2023-01-27T04:11:19;98459.16;;;3.22;100.00
7180;BME280;3631;42.152;24.756;2023-01-27T04:14:05;98459.97;;;3.25;100.00
7180;BME280;3631;42.152;24.756;2023-01-27T04:16:42;98447.00;;;3.33;100.00
7180;BME280;3631;42.152;24.756;2023-01-27T04:19:21;98483.25;;;3.62;100.00
7180;BME280;3631;42.152;24.756;2023-01-27T04:21:53;98482.84;;;3.36;100.00
7180;BME280;3631;42.152;24.756;2023-01-27T04:24:24;98484.38;;;3.48;100.00
7180;BME280;3631;42.152;24.756;2023-01-27T04:27:05;98468.13;;;3.49;100.00
7180;BME280;3631;42.152;24.756;2023-01-27T04:29:40;98480.66;;;3.62;100.00
7180;BME280;3631;42.152;24.756;2023-01-27T04:32:15;98480.66;;;3.62;100.00
7180;BME280;3631;42.152;24.756;2023-01-27T04:34:51;98472.94;;;3.64;100.00
7180;BME280;3631;42.152;24.756;2023-01-27T04:37:29;98454.25;;;3.59;100.00
7180;BME280;3631;42.152;24.756;2023-01-27T04:40:13;98444.00;;;3.57;100.00
7180;BME280;3631;42.152;24.756;2023-01-27T04:42:49;98451.59;;;3.62;100.00
7180;BME280;3631;42.152;24.756;2023-01-27T04:45:32;98467.06;;;3.59;100.00
7180;BME280;3631;42.152;24.756;2023-01-27T04:48:05;98464.69;;;3.48;100.00
7180;BME280;3631;42.152;24.756;2023-01-27T04:50:46;98479.22;;;3.49;100.00
7180;BME280;3631;42.152;24.756;2023-01-27T04:54:09;98461.47;;;3.37;100.00
7180;BME280;3631;42.152;24.756;2023-01-27T04:57:02;98467.16;;;3.54;100.00
7180;BME280;3631;42.152;24.756;2023-01-27T04:59:59;98466.41;;;3.49;100.00
7180;BME280;3631;42.152;24.756;2023-01-27T05:02:48;98461.13;;;3.55;100.00
7180;BME280;3631;42.152;24.756;2023-01-27T05:06:03;98461.97;;;3.57;100.00
7180;BME280;3631;42.152;24.756;2023-01-27T05:12:18;98477.72;;;3.36;100.00
7180;BME280;3631;42.152;24.756;2023-01-27T05:15:21;98481.88;;;3.43;100.00
7180;BME280;3631;42.152;24.756;2023-01-27T05:18:14;98489.47;;;3.49;100.00
7180;BME280;3631;42.152;24.756;2023-01-27T05:21:06;98506.53;;;3.50;100.00
7180;BME280;3631;42.152;24.756;2023-01-27T05:23:58;98510.63;;;3.62;100.00
7180;BME280;3631;42.152;24.756;2023-01-27T05:26:37;98481.72;;;3.51;100.00
7180;BME280;3631;42.152;24.756;2023-01-27T05:32:48;98507.44;;;3.49;100.00
7180;BME280;3631;42.152;24.756;2023-01-27T05:35:47;98498.09;;;3.45;100.00
7180;BME280;3631;42.152;24.756;2023-01-27T05:38:38;98499.88;;;3.40;100.00
7180;BME280;3631;42.152;24.756;2023-01-27T05:41:49;98505.19;;;3.28;100.00
7180;BME280;3631;42.152;24.756;2023-01-27T05:44:49;98488.91;;;3.31;100.00
7180;BME280;3631;42.152;24.756;2023-01-27T05:50:57;98508.19;;;3.54;100.00
7180;BME280;3631;42.152;24.756;2023-01-27T05:53:46;98515.63;;;3.70;100.00
7180;BME280;3631;42.152;24.756;2023-01-27T05:57:00;98507.00;;;3.74;100.00
7180;BME280;3631;42.152;24.756;2023-01-27T05:59:56;98472.19;;;3.60;100.00
7180;BME280;3631;42.152;24.756;2023-01-27T06:02:42;98486.75;;;3.58;100.00
7180;BME280;3631;42.152;24.756;2023-01-27T06:09:03;98496.16;;;3.59;100.00
7180;BME280;3631;42.152;24.756;2023-01-27T06:12:03;98495.13;;;3.68;100.00
7180;BME280;3631;42.152;24.756;2023-01-27T06:18:11;98475.72;;;3.53;100.00
7180;BME280;3631;42.152;24.756;2023-01-27T06:21:00;98459.53;;;3.50;100.00
7180;BME280;3631;42.152;24.756;2023-01-27T06:23:45;98485.94;;;3.56;100.00
7180;BME280;3631;42.152;24.756;2023-01-27T06:33:10;98511.25;;;3.75;100.00
7180;BME280;3631;42.152;24.756;2023-01-27T06:35:49;98493.59;;;3.58;100.00
7180;BME280;3631;42.152;24.756;2023-01-27T06:38:42;98492.91;;;3.48;100.00
7180;BME280;3631;42.152;24.756;2023-01-27T06:41:24;98474.09;;;3.49;100.00
7180;BME280;3631;42.152;24.756;2023-01-27T06:51:23;98501.38;;;4.01;100.00
7180;BME280;3631;42.152;24.756;2023-01-27T06:54:10;98492.56;;;4.14;100.00
7180;BME280;3631;42.152;24.756;2023-01-27T06:56:46;98483.00;;;4.21;100.00
7180;BME280;3631;42.152;24.756;2023-01-27T06:59:17;98498.97;;;4.36;100.00
7180;BME280;3631;42.152;24.756;2023-01-27T07:01:51;98496.22;;;4.46;100.00
7180;BME280;3631;42.152;24.756;2023-01-27T07:04:27;98482.53;;;4.44;100.00
7180;BME280;3631;42.152;24.756;2023-01-27T07:07:03;98478.16;;;4.49;100.00
7180;BME280;3631;42.152;24.756;2023-01-27T07:10:00;98516.44;;;4.62;100.00
7180;BME280;3631;42.152;24.756;2023-01-27T07:16:17;98482.47;;;4.47;100.00
7180;BME280;3631;42.152;24.756;2023-01-27T07:18:47;98459.66;;;4.33;100.00
7180;BME280;3631;42.152;24.756;2023-01-27T07:21:28;98508.44;;;4.74;100.00
7180;BME280;3631;42.152;24.756;2023-01-27T07:35:48;98390.09;;;4.02;100.00
7180;BME280;3631;42.152;24.756;2023-01-27T07:38:54;98520.53;;;4.71;100.00
7180;BME280;3631;42.152;24.756;2023-01-27T07:42:04;98356.41;;;3.76;100.00
7180;BME280;3631;42.152;24.756;2023-01-27T07:45:56;98474.84;;;4.44;100.00
7180;BME280;3631;42.152;24.756;2023-01-27T07:49:01;98517.81;;;4.77;100.00
7180;BME280;3631;42.152;24.756;2023-01-27T07:52:04;98495.69;;;4.70;100.00
7180;BME280;3631;42.152;24.756;2023-01-27T07:55:02;98498.81;;;4.84;100.00
7180;BME280;3631;42.152;24.756;2023-01-27T07:57:56;98491.88;;;4.86;100.00
7180;BME280;3631;42.152;24.756;2023-01-27T08:01:06;98508.94;;;4.90;100.00
7180;BME280;3631;42.152;24.756;2023-01-27T08:04:10;98509.66;;;4.97;100.00
7180;BME280;3631;42.152;24.756;2023-01-27T08:07:15;98500.94;;;5.04;100.00
7180;BME280;3631;42.152;24.756;2023-01-27T08:10:05;98488.34;;;4.92;100.00
7180;BME280;3631;42.152;24.756;2023-01-27T08:13:01;98506.91;;;5.04;100.00
7180;BME280;3631;42.152;24.756;2023-01-27T08:15:47;98488.31;;;4.93;100.00
7180;BME280;3631;42.152;24.756;2023-01-27T08:18:52;98499.16;;;5.07;100.00
7180;BME280;3631;42.152;24.756;2023-01-27T08:21:58;98462.09;;;4.78;100.00
7180;BME280;3631;42.152;24.756;2023-01-27T08:28:23;98446.91;;;4.67;100.00
7180;BME280;3631;42.152;24.756;2023-01-27T08:31:44;98455.13;;;4.84;100.00
7180;BME280;3631;42.152;24.756;2023-01-27T08:34:34;98414.19;;;4.75;100.00
7180;BME280;3631;42.152;24.756;2023-01-27T08:37:46;98459.78;;;5.04;100.00
7180;BME280;3631;42.152;24.756;2023-01-27T08:40:33;98455.34;;;5.10;100.00
7180;BME280;3631;42.152;24.756;2023-01-27T08:43:40;98445.00;;;5.12;100.00
7180;BME280;3631;42.152;24.756;2023-01-27T08:46:37;98438.41;;;5.02;100.00
7180;BME280;3631;42.152;24.756;2023-01-27T08:49:32;98441.59;;;5.11;100.00
7180;BME280;3631;42.152;24.756;2023-01-27T08:52:36;98463.56;;;5.25;100.00
7180;BME280;3631;42.152;24.756;2023-01-27T08:55:41;98470.97;;;5.38;100.00
7180;BME280;3631;42.152;24.756;2023-01-27T08:58:30;98471.81;;;5.39;100.00
7180;BME280;3631;42.152;24.756;2023-01-27T09:01:30;98481.97;;;5.43;100.00
7180;BME280;3631;42.152;24.756;2023-01-27T09:04:31;98475.28;;;5.36;100.00
7180;BME280;3631;42.152;24.756;2023-01-27T09:07:26;98454.22;;;5.21;100.00
7180;BME280;3631;42.152;24.756;2023-01-27T09:10:36;98470.34;;;5.29;100.00
7180;BME280;3631;42.152;24.756;2023-01-27T09:13:44;98477.25;;;5.27;100.00
7180;BME280;3631;42.152;24.756;2023-01-27T09:16:33;98474.53;;;5.31;100.00
7180;BME280;3631;42.152;24.756;2023-01-27T09:19:20;98461.75;;;5.30;100.00
7180;BME280;3631;42.152;24.756;2023-01-27T09:22:39;98476.78;;;5.45;100.00
7180;BME280;3631;42.152;24.756;2023-01-27T09:26:00;98462.00;;;5.53;100.00
7180;BME280;3631;42.152;24.756;2023-01-27T09:28:36;98453.56;;;5.48;100.00
7180;BME280;3631;42.152;24.756;2023-01-27T09:31:42;98450.06;;;5.51;100.00
7180;BME280;3631;42.152;24.756;2023-01-27T09:34:19;98434.09;;;5.38;100.00
7180;BME280;3631;42.152;24.756;2023-01-27T09:37:09;98428.06;;;5.39;100.00
7180;BME280;3631;42.152;24.756;2023-01-27T09:39:49;98412.91;;;5.28;100.00
7180;BME280;3631;42.152;24.756;2023-01-27T09:42:47;98416.28;;;5.30;100.00
7180;BME280;3631;42.152;24.756;2023-01-27T09:52:13;98397.06;;;5.43;100.00
7180;BME280;3631;42.152;24.756;2023-01-27T09:55:32;98407.81;;;5.59;100.00
7180;BME280;3631;42.152;24.756;2023-01-27T09:58:44;98409.75;;;5.51;100.00
7180;BME280;3631;42.152;24.756;2023-01-27T10:01:52;98425.78;;;5.61;100.00
7180;BME280;3631;42.152;24.756;2023-01-27T10:05:04;98421.31;;;5.67;100.00
7180;BME280;3631;42.152;24.756;2023-01-27T10:14:58;98408.97;;;5.78;100.00
7180;BME280;3631;42.152;24.756;2023-01-27T10:21:14;98406.63;;;6.03;100.00
7180;BME280;3631;42.152;24.756;2023-01-27T10:24:18;98409.28;;;6.00;100.00
7180;BME280;3631;42.152;24.756;2023-01-27T10:27:36;98398.03;;;6.03;100.00
7180;BME280;3631;42.152;24.756;2023-01-27T10:30:41;98381.75;;;6.02;100.00
7180;BME280;3631;42.152;24.756;2023-01-27T10:33:51;98378.38;;;6.00;100.00
7180;BME280;3631;42.152;24.756;2023-01-27T10:36:45;98379.22;;;6.01;100.00
7180;BME280;3631;42.152;24.756;2023-01-27T10:39:39;98365.06;;;5.84;100.00
7180;BME280;3631;42.152;24.756;2023-01-27T10:46:00;98364.63;;;6.00;100.00
7180;BME280;3631;42.152;24.756;2023-01-27T10:49:13;98364.44;;;6.07;100.00
7180;BME280;3631;42.152;24.756;2023-01-27T10:52:14;98352.09;;;5.88;100.00
7180;BME280;3631;42.152;24.756;2023-01-27T10:55:10;98347.56;;;5.97;100.00
7180;BME280;3631;42.152;24.756;2023-01-27T10:58:17;98346.38;;;6.09;100.00
7180;BME280;3631;42.152;24.756;2023-01-27T11:01:13;98355.72;;;6.11;100.00
7180;BME280;3631;42.152;24.756;2023-01-27T11:04:12;98341.78;;;6.18;100.00
7180;BME280;3631;42.152;24.756;2023-01-27T11:06:58;98341.47;;;6.29;100.00
7180;BME280;3631;42.152;24.756;2023-01-27T11:09:42;98336.25;;;6.31;100.00
7180;BME280;3631;42.152;24.756;2023-01-27T11:12:28;98307.13;;;6.29;100.00
7180;BME280;3631;42.152;24.756;2023-01-27T11:15:25;98316.19;;;6.40;100.00
7180;BME280;3631;42.152;24.756;2023-01-27T11:18:35;98302.03;;;6.53;100.00
7180;BME280;3631;42.152;24.756;2023-01-27T11:21:34;98311.84;;;6.69;100.00
7180;BME280;3631;42.152;24.756;2023-01-27T11:24:38;98324.19;;;6.85;100.00
7180;BME280;3631;42.152;24.756;2023-01-27T11:27:49;98317.66;;;7.00;100.00
7180;BME280;3631;42.152;24.756;2023-01-27T11:31:01;98310.38;;;6.88;100.00
7180;BME280;3631;42.152;24.756;2023-01-27T11:34:15;98330.06;;;7.15;100.00
7180;BME280;3631;42.152;24.756;2023-01-27T11:37:30;98330.63;;;7.23;100.00
7180;BME280;3631;42.152;24.756;2023-01-27T11:40:34;98335.91;;;7.20;100.00
7180;BME280;3631;42.152;24.756;2023-01-27T11:43:28;98342.66;;;7.24;100.00
7180;BME280;3631;42.152;24.756;2023-01-27T11:46:22;98324.00;;;7.16;100.00
7180;BME280;3631;42.152;24.756;2023-01-27T11:49:38;98320.44;;;7.20;100.00
7180;BME280;3631;42.152;24.756;2023-01-27T11:52:35;98310.63;;;7.05;100.00
7180;BME280;3631;42.152;24.756;2023-01-27T11:55:21;98305.09;;;6.91;100.00
7180;BME280;3631;42.152;24.756;2023-01-27T11:58:16;98321.56;;;6.87;100.00
7180;BME280;3631;42.152;24.756;2023-01-27T12:01:14;98311.34;;;6.84;100.00
7180;BME280;3631;42.152;24.756;2023-01-27T12:04:30;98312.94;;;6.88;100.00
7180;BME280;3631;42.152;24.756;2023-01-27T12:07:20;98307.88;;;6.85;100.00
7180;BME280;3631;42.152;24.756;2023-01-27T12:10:27;98319.66;;;6.92;100.00
7180;BME280;3631;42.152;24.756;2023-01-27T12:13:18;98316.94;;;6.97;100.00
7180;BME280;3631;42.152;24.756;2023-01-27T12:16:07;98310.25;;;6.91;100.00
7180;BME280;3631;42.152;24.756;2023-01-27T12:19:13;98286.94;;;6.94;100.00
7180;BME280;3631;42.152;24.756;2023-01-27T12:22:08;98294.72;;;6.92;100.00
7180;BME280;3631;42.152;24.756;2023-01-27T12:25:15;98295.56;;;6.93;100.00
7180;BME280;3631;42.152;24.756;2023-01-27T12:28:05;98291.75;;;6.78;100.00
7180;BME280;3631;42.152;24.756;2023-01-27T12:31:03;98289.88;;;6.83;100.00
7180;BME280;3631;42.152;24.756;2023-01-27T12:34:02;98281.25;;;6.84;100.00
7180;BME280;3631;42.152;24.756;2023-01-27T12:36:43;98285.19;;;6.95;100.00
7180;BME280;3631;42.152;24.756;2023-01-27T12:39:43;98283.09;;;7.06;100.00
7180;BME280;3631;42.152;24.756;2023-01-27T12:43:02;98295.41;;;7.22;100.00
7180;BME280;3631;42.152;24.756;2023-01-27T12:45:56;98287.81;;;7.43;100.00
7180;BME280;3631;42.152;24.756;2023-01-27T12:49:07;98286.25;;;7.62;100.00
7180;BME280;3631;42.152;24.756;2023-01-27T12:52:08;98283.22;;;7.74;100.00
7180;BME280;3631;42.152;24.756;2023-01-27T12:55:11;98292.47;;;7.56;100.00
7180;BME280;3631;42.152;24.756;2023-01-27T12:58:37;98288.63;;;7.45;100.00
7180;BME280;3631;42.152;24.756;2023-01-27T13:01:37;98287.59;;;7.24;100.00
7180;BME280;3631;42.152;24.756;2023-01-27T13:04:13;98289.56;;;7.17;100.00
7180;BME280;3631;42.152;24.756;2023-01-27T13:07:03;98294.72;;;7.17;100.00
7180;BME280;3631;42.152;24.756;2023-01-27T14:13:57;98317.53;;;6.78;100.00
7180;BME280;3631;42.152;24.756;2023-01-27T14:16:30;98313.97;;;6.82;100.00
7180;BME280;3631;42.152;24.756;2023-01-27T14:19:07;98317.41;;;6.83;100.00
7180;BME280;3631;42.152;24.756;2023-01-27T14:21:46;98316.81;;;6.75;100.00
7180;BME280;3631;42.152;24.756;2023-01-27T14:24:20;98307.78;;;6.62;100.00
7180;BME280;3631;42.152;24.756;2023-01-27T14:41:04;98303.72;;;6.54;100.00
7180;BME280;3631;42.152;24.756;2023-01-27T14:43:36;98301.75;;;6.63;100.00
7180;BME280;3631;42.152;24.756;2023-01-27T14:46:14;98304.16;;;6.67;100.00
7180;BME280;3631;42.152;24.756;2023-01-27T14:48:52;98307.75;;;6.63;100.00
7180;BME280;3631;42.152;24.756;2023-01-27T14:54:55;98321.69;;;6.56;100.00
7180;BME280;3631;42.152;24.756;2023-01-27T14:57:31;98324.53;;;6.48;100.00
7180;BME280;3631;42.152;24.756;2023-01-27T15:00:16;98322.34;;;6.36;100.00
7180;BME280;3631;42.152;24.756;2023-01-27T15:02:51;98299.38;;;6.29;100.00
7180;BME280;3631;42.152;24.756;2023-01-27T15:05:28;98313.47;;;6.45;100.00
7180;BME280;3631;42.152;24.756;2023-01-27T15:07:59;98323.72;;;6.46;100.00
7180;BME280;3631;42.152;24.756;2023-01-27T15:10:29;98320.22;;;6.49;100.00
7180;BME280;3631;42.152;24.756;2023-01-27T15:16:13;98328.03;;;6.46;100.00
7180;BME280;3631;42.152;24.756;2023-01-27T15:19:05;98328.09;;;6.44;100.00
7180;BME280;3631;42.152;24.756;2023-01-27T15:21:50;98330.56;;;6.47;100.00
7180;BME280;3631;42.152;24.756;2023-01-27T15:24:46;98334.84;;;6.48;100.00
7180;BME280;3631;42.152;24.756;2023-01-27T15:27:17;98332.16;;;6.51;100.00
7180;BME280;3631;42.152;24.756;2023-01-27T15:29:47;98332.22;;;6.50;100.00
7180;BME280;3631;42.152;24.756;2023-01-27T15:32:33;98333.53;;;6.35;100.00
7180;BME280;3631;42.152;24.756;2023-01-27T15:35:33;98325.84;;;6.34;100.00
7180;BME280;3631;42.152;24.756;2023-01-27T15:38:16;98333.47;;;6.37;100.00
7180;BME280;3631;42.152;24.756;2023-01-27T15:40:55;98330.16;;;6.33;100.00
7180;BME280;3631;42.152;24.756;2023-01-27T15:43:27;98333.69;;;6.31;100.00
7180;BME280;3631;42.152;24.756;2023-01-27T15:45:57;98331.31;;;6.23;100.00
7180;BME280;3631;42.152;24.756;2023-01-27T15:48:43;98332.22;;;6.22;100.00
7180;BME280;3631;42.152;24.756;2023-01-27T15:51:15;98336.47;;;6.23;100.00
7180;BME280;3631;42.152;24.756;2023-01-27T15:53:47;98329.63;;;6.22;100.00
7180;BME280;3631;42.152;24.756;2023-01-27T15:56:15;98338.84;;;6.31;100.00
7180;BME280;3631;42.152;24.756;2023-01-27T15:58:49;98342.44;;;6.25;100.00
7180;BME280;3631;42.152;24.756;2023-01-27T16:01:25;98339.91;;;6.24;100.00
7180;BME280;3631;42.152;24.756;2023-01-27T16:04:04;98342.59;;;6.21;100.00
7180;BME280;3631;42.152;24.756;2023-01-27T16:06:33;98346.81;;;6.22;100.00
7180;BME280;3631;42.152;24.756;2023-01-27T16:09:03;98351.84;;;6.26;100.00
7180;BME280;3631;42.152;24.756;2023-01-27T16:11:41;98348.47;;;6.24;100.00
7180;BME280;3631;42.152;24.756;2023-01-27T16:14:40;98356.28;;;6.21;100.00
7180;BME280;3631;42.152;24.756;2023-01-27T16:17:23;98353.50;;;6.29;100.00
7180;BME280;3631;42.152;24.756;2023-01-27T16:20:15;98352.25;;;6.42;100.00
7180;BME280;3631;42.152;24.756;2023-01-27T16:22:46;98364.25;;;6.43;100.00
7180;BME280;3631;42.152;24.756;2023-01-27T16:25:24;98364.38;;;6.38;100.00
7180;BME280;3631;42.152;24.756;2023-01-27T16:27:58;98358.56;;;6.32;100.00
7180;BME280;3631;42.152;24.756;2023-01-27T16:30:27;98366.38;;;6.29;100.00
7180;BME280;3631;42.152;24.756;2023-01-27T16:33:02;98364.72;;;6.26;100.00
7180;BME280;3631;42.152;24.756;2023-01-27T16:35:41;98358.09;;;6.19;100.00
7180;BME280;3631;42.152;24.756;2023-01-27T16:38:19;98372.53;;;6.23;100.00
7180;BME280;3631;42.152;24.756;2023-01-27T16:40:50;98374.47;;;6.16;100.00
7180;BME280;3631;42.152;24.756;2023-01-27T16:43:20;98364.16;;;6.16;100.00
7180;BME280;3631;42.152;24.756;2023-01-27T16:45:51;98365.16;;;6.11;100.00
7180;BME280;3631;42.152;24.756;2023-01-27T16:48:27;98370.13;;;6.18;100.00
7180;BME280;3631;42.152;24.756;2023-01-27T16:51:06;98377.09;;;6.15;100.00
7180;BME280;3631;42.152;24.756;2023-01-27T16:53:36;98371.94;;;6.15;100.00
7180;BME280;3631;42.152;24.756;2023-01-27T16:56:04;98381.66;;;6.05;100.00
7180;BME280;3631;42.152;24.756;2023-01-27T16:58:33;98371.16;;;6.11;100.00
7180;BME280;3631;42.152;24.756;2023-01-27T17:01:01;98378.94;;;6.10;100.00
7180;BME280;3631;42.152;24.756;2023-01-27T17:03:34;98360.50;;;5.96;100.00
7180;BME280;3631;42.152;24.756;2023-01-27T17:06:04;98378.13;;;6.09;100.00
7180;BME280;3631;42.152;24.756;2023-01-27T17:08:33;98383.28;;;6.09;100.00
7180;BME280;3631;42.152;24.756;2023-01-27T17:11:06;98372.97;;;6.09;100.00
7180;BME280;3631;42.152;24.756;2023-01-27T17:13:41;98385.84;;;6.09;100.00
7180;BME280;3631;42.152;24.756;2023-01-27T17:16:11;98384.09;;;6.10;100.00
7180;BME280;3631;42.152;24.756;2023-01-27T17:18:43;98395.19;;;6.12;100.00
7180;BME280;3631;42.152;24.756;2023-01-27T17:21:10;98383.16;;;6.12;100.00
7180;BME280;3631;42.152;24.756;2023-01-27T17:23:37;98397.88;;;6.09;100.00
7180;BME280;3631;42.152;24.756;2023-01-27T17:26:06;98397.88;;;6.09;100.00
7180;BME280;3631;42.152;24.756;2023-01-27T17:28:37;98382.63;;;6.01;100.00
7180;BME280;3631;42.152;24.756;2023-01-27T17:31:05;98391.19;;;6.02;100.00
7180;BME280;3631;42.152;24.756;2023-01-27T17:33:34;98408.47;;;5.98;100.00
7180;BME280;3631;42.152;24.756;2023-01-27T17:36:07;98389.50;;;6.01;100.00
7180;BME280;3631;42.152;24.756;2023-01-27T17:38:39;98391.13;;;6.05;100.00
7180;BME280;3631;42.152;24.756;2023-01-27T17:41:23;98389.47;;;6.02;100.00
7180;BME280;3631;42.152;24.756;2023-01-27T17:43:51;98407.41;;;6.05;100.00
7180;BME280;3631;42.152;24.756;2023-01-27T17:46:19;98400.69;;;6.00;100.00
7180;BME280;3631;42.152;24.756;2023-01-27T17:48:51;98400.69;;;6.00;100.00
7180;BME280;3631;42.152;24.756;2023-01-27T17:51:21;98407.53;;;6.01;100.00
7180;BME280;3631;42.152;24.756;2023-01-27T17:53:50;98411.03;;;5.98;100.00
7180;BME280;3631;42.152;24.756;2023-01-27T17:56:20;98416.97;;;6.02;100.00